sensor_id;sensor_type;location;lat;lon;timestamp;temperature;humidity
65598;SHT31;52267;51.984;20.956;2023-01-01T00:01:48;12.80;78.00
65598;SHT31;52267;51.984;20.956;2023-01-01T00:04:15;12.79;78.05
65598;SHT31;52267;51.984;20.956;2023-01-01T00:06:42;12.77;78.08
65598;SHT31;52267;51.984;20.956;2023-01-01T00:09:11;12.76;78.09
65598;SHT31;52267;51.984;20.956;2023-01-01T00:11:57;12.74;78.11
65598;SHT31;52267;51.984;20.956;2023-01-01T00:14:24;12.74;78.10
65598;SHT31;52267;51.984;20.956;2023-01-01T00:16:55;12.74;78.10
65598;SHT31;52267;51.984;20.956;2023-01-01T00:19:22;12.74;78.10
65598;SHT31;52267;51.984;20.956;2023-01-01T00:21:49;12.76;78.06
65598;SHT31;52267;51.984;20.956;2023-01-01T00:24:16;12.77;77.99
65598;SHT31;52267;51.984;20.956;2023-01-01T00:26:43;12.76;78.03
65598;SHT31;52267;51.984;20.956;2023-01-01T00:29:11;12.74;78.01
65598;SHT31;52267;51.984;20.956;2023-01-01T00:31:38;12.74;78.00
65598;SHT31;52267;51.984;20.956;2023-01-01T00:34:05;12.78;77.93
65598;SHT31;52267;51.984;20.956;2023-01-01T00:36:32;12.78;77.89
65598;SHT31;52267;51.984;20.956;2023-01-01T00:39:00;12.77;77.88
65598;SHT31;52267;51.984;20.956;2023-01-01T00:41:28;12.77;77.87
65598;SHT31;52267;51.984;20.956;2023-01-01T00:43:55;12.77;77.83
65598;SHT31;52267;51.984;20.956;2023-01-01T00:46:22;12.77;77.79
65598;SHT31;52267;51.984;20.956;2023-01-01T00:48:49;12.78;77.73
65598;SHT31;52267;51.984;20.956;2023-01-01T00:51:16;12.78;77.76
65598;SHT31;52267;51.984;20.956;2023-01-01T00:53:43;12.77;77.72
65598;SHT31;52267;51.984;20.956;2023-01-01T00:56:10;12.81;77.61
65598;SHT31;52267;51.984;20.956;2023-01-01T00:58:37;12.84;77.62
65598;SHT31;52267;51.984;20.956;2023-01-01T01:01:04;12.81;77.65
65598;SHT31;52267;51.984;20.956;2023-01-01T01:03:31;12.80;77.69
65598;SHT31;52267;51.984;20.956;2023-01-01T01:06:06;12.80;77.58
65598;SHT31;52267;51.984;20.956;2023-01-01T01:08:37;12.82;77.65
65598;SHT31;52267;51.984;20.956;2023-01-01T01:11:07;12.80;77.53
65598;SHT31;52267;51.984;20.956;2023-01-01T01:13:34;12.81;77.50
65598;SHT31;52267;51.984;20.956;2023-01-01T01:16:13;12.84;77.33
65598;SHT31;52267;51.984;20.956;2023-01-01T01:18:45;12.84;77.44
65598;SHT31;52267;51.984;20.956;2023-01-01T01:21:17;12.83;77.46
65598;SHT31;52267;51.984;20.956;2023-01-01T01:23:45;12.84;77.43
65598;SHT31;52267;51.984;20.956;2023-01-01T01:28:47;12.78;77.42
65598;SHT31;52267;51.984;20.956;2023-01-01T01:31:15;12.77;77.44
65598;SHT31;52267;51.984;20.956;2023-01-01T01:33:46;12.77;77.33
65598;SHT31;52267;51.984;20.956;2023-01-01T01:36:15;12.76;77.31
65598;SHT31;52267;51.984;20.956;2023-01-01T01:38:44;12.73;77.38
65598;SHT31;52267;51.984;20.956;2023-01-01T01:41:13;12.71;77.31
65598;SHT31;52267;51.984;20.956;2023-01-01T01:46:13;12.69;77.32
65598;SHT31;52267;51.984;20.956;2023-01-01T01:48:47;12.67;77.38
65598;SHT31;52267;51.984;20.956;2023-01-01T01:51:25;12.65;77.28
65598;SHT31;52267;51.984;20.956;2023-01-01T01:53:59;12.62;77.41
65598;SHT31;52267;51.984;20.956;2023-01-01T01:56:45;12.61;77.34
65598;SHT31;52267;51.984;20.956;2023-01-01T01:59:21;12.60;77.23
65598;SHT31;52267;51.984;20.956;2023-01-01T02:01:53;12.61;77.26
65598;SHT31;52267;51.984;20.956;2023-01-01T02:04:20;12.62;77.03
65598;SHT31;52267;51.984;20.956;2023-01-01T02:06:47;12.63;77.10
65598;SHT31;52267;51.984;20.956;2023-01-01T02:09:15;12.63;76.95
65598;SHT31;52267;51.984;20.956;2023-01-01T02:11:43;12.62;76.93
65598;SHT31;52267;51.984;20.956;2023-01-01T02:14:10;12.61;76.96
65598;SHT31;52267;51.984;20.956;2023-01-01T02:16:56;12.60;77.03
65598;SHT31;52267;51.984;20.956;2023-01-01T02:22:58;12.58;76.87
65598;SHT31;52267;51.984;20.956;2023-01-01T02:28:57;12.58;76.77
65598;SHT31;52267;51.984;20.956;2023-01-01T02:31:41;12.59;76.76
65598;SHT31;52267;51.984;20.956;2023-01-01T02:34:35;12.56;76.82
65598;SHT31;52267;51.984;20.956;2023-01-01T02:37:09;12.54;76.72
65598;SHT31;52267;51.984;20.956;2023-01-01T02:39:41;12.55;76.87
65598;SHT31;52267;51.984;20.956;2023-01-01T02:42:30;12.55;76.71
65598;SHT31;52267;51.984;20.956;2023-01-01T02:44:58;12.55;76.69
65598;SHT31;52267;51.984;20.956;2023-01-01T02:47:26;12.54;76.50
65598;SHT31;52267;51.984;20.956;2023-01-01T02:52:44;12.50;76.76
65598;SHT31;52267;51.984;20.956;2023-01-01T02:58:33;12.50;76.60
65598;SHT31;52267;51.984;20.956;2023-01-01T03:01:36;12.50;76.61
65598;SHT31;52267;51.984;20.956;2023-01-01T03:07:49;12.50;76.52
65598;SHT31;52267;51.984;20.956;2023-01-01T03:10:32;12.51;76.38
65598;SHT31;52267;51.984;20.956;2023-01-01T03:15:59;12.52;76.30
65598;SHT31;52267;51.984;20.956;2023-01-01T03:21:44;12.57;76.10
65598;SHT31;52267;51.984;20.956;2023-01-01T03:25:02;12.56;76.15
65598;SHT31;52267;51.984;20.956;2023-01-01T03:30:03;12.63;75.80
65598;SHT31;52267;51.984;20.956;2023-01-01T03:32:36;12.67;75.39
65598;SHT31;52267;51.984;20.956;2023-01-01T03:35:32;12.74;75.32
65598;SHT31;52267;51.984;20.956;2023-01-01T03:38:14;12.82;74.93
65598;SHT31;52267;51.984;20.956;2023-01-01T03:40:50;12.88;74.87
65598;SHT31;52267;51.984;20.956;2023-01-01T03:46:12;12.98;74.61
65598;SHT31;52267;51.984;20.956;2023-01-01T03:48:42;13.07;74.06
65598;SHT31;52267;51.984;20.956;2023-01-01T03:53:58;13.22;73.56
65598;SHT31;52267;51.984;20.956;2023-01-01T03:56:35;13.35;72.77
65598;SHT31;52267;51.984;20.956;2023-01-01T04:01:51;13.59;71.93
65598;SHT31;52267;51.984;20.956;2023-01-01T04:04:23;13.75;71.06
65598;SHT31;52267;51.984;20.956;2023-01-01T04:06:52;13.89;70.72
65598;SHT31;52267;51.984;20.956;2023-01-01T04:09:20;13.97;70.38
65598;SHT31;52267;51.984;20.956;2023-01-01T04:11:56;14.01;70.26
65598;SHT31;52267;51.984;20.956;2023-01-01T04:17:00;14.05;70.32
65598;SHT31;52267;51.984;20.956;2023-01-01T04:19:30;14.10;69.72
65598;SHT31;52267;51.984;20.956;2023-01-01T04:21:58;14.16;69.76
65598;SHT31;52267;51.984;20.956;2023-01-01T04:24:25;14.23;69.03
65598;SHT31;52267;51.984;20.956;2023-01-01T04:26:53;14.26;69.31
65598;SHT31;52267;51.984;20.956;2023-01-01T04:29:20;14.26;69.47
65598;SHT31;52267;51.984;20.956;2023-01-01T04:31:48;14.26;69.34
65598;SHT31;52267;51.984;20.956;2023-01-01T04:34:16;14.27;69.37
65598;SHT31;52267;51.984;20.956;2023-01-01T04:36:43;14.25;68.85
65598;SHT31;52267;51.984;20.956;2023-01-01T04:39:10;14.24;69.08
65598;SHT31;52267;51.984;20.956;2023-01-01T04:41:37;14.30;68.55
65598;SHT31;52267;51.984;20.956;2023-01-01T04:44:04;14.31;68.41
65598;SHT31;52267;51.984;20.956;2023-01-01T04:46:31;14.31;68.40
65598;SHT31;52267;51.984;20.956;2023-01-01T04:48:58;14.32;68.41
65598;SHT31;52267;51.984;20.956;2023-01-01T04:51:26;14.33;68.53
65598;SHT31;52267;51.984;20.956;2023-01-01T04:53:53;14.31;68.32
65598;SHT31;52267;51.984;20.956;2023-01-01T04:56:20;14.35;67.93
65598;SHT31;52267;51.984;20.956;2023-01-01T04:58:48;14.36;67.98
65598;SHT31;52267;51.984;20.956;2023-01-01T05:01:25;14.34;68.13
65598;SHT31;52267;51.984;20.956;2023-01-01T05:03:54;14.33;68.08
65598;SHT31;52267;51.984;20.956;2023-01-01T05:06:22;14.29;68.27
65598;SHT31;52267;51.984;20.956;2023-01-01T05:08:51;14.28;68.23
65598;SHT31;52267;51.984;20.956;2023-01-01T05:11:21;14.25;68.37
65598;SHT31;52267;51.984;20.956;2023-01-01T05:13:55;14.21;68.17
65598;SHT31;52267;51.984;20.956;2023-01-01T05:16:30;14.15;68.01
65598;SHT31;52267;51.984;20.956;2023-01-01T05:19:02;14.13;68.39
65598;SHT31;52267;51.984;20.956;2023-01-01T05:21:31;14.07;68.78
65598;SHT31;52267;51.984;20.956;2023-01-01T05:24:02;14.02;68.84
65598;SHT31;52267;51.984;20.956;2023-01-01T05:26:34;13.97;68.87
65598;SHT31;52267;51.984;20.956;2023-01-01T05:29:04;13.95;68.69
65598;SHT31;52267;51.984;20.956;2023-01-01T05:31:33;13.93;68.86
65598;SHT31;52267;51.984;20.956;2023-01-01T05:34:01;13.92;68.73
65598;SHT31;52267;51.984;20.956;2023-01-01T05:36:30;13.89;68.77
65598;SHT31;52267;51.984;20.956;2023-01-01T05:39:07;13.86;68.95
65598;SHT31;52267;51.984;20.956;2023-01-01T05:41:37;13.85;68.73
65598;SHT31;52267;51.984;20.956;2023-01-01T05:44:05;13.84;68.99
65598;SHT31;52267;51.984;20.956;2023-01-01T05:46:34;13.84;68.83
65598;SHT31;52267;51.984;20.956;2023-01-01T05:49:02;13.84;68.81
65598;SHT31;52267;51.984;20.956;2023-01-01T05:51:30;13.82;68.75
65598;SHT31;52267;51.984;20.956;2023-01-01T05:53:57;13.83;68.40
65598;SHT31;52267;51.984;20.956;2023-01-01T05:56:25;13.84;68.56
65598;SHT31;52267;51.984;20.956;2023-01-01T05:58:53;13.84;68.40
65598;SHT31;52267;51.984;20.956;2023-01-01T06:01:25;13.84;68.33
65598;SHT31;52267;51.984;20.956;2023-01-01T06:03:55;13.84;68.39
65598;SHT31;52267;51.984;20.956;2023-01-01T06:06:24;13.83;68.34
65598;SHT31;52267;51.984;20.956;2023-01-01T06:08:56;13.82;68.44
65598;SHT31;52267;51.984;20.956;2023-01-01T06:11:25;13.82;68.35
65598;SHT31;52267;51.984;20.956;2023-01-01T06:13:55;13.83;68.42
65598;SHT31;52267;51.984;20.956;2023-01-01T06:16:25;13.81;68.16
65598;SHT31;52267;51.984;20.956;2023-01-01T06:18:54;13.80;67.98
65598;SHT31;52267;51.984;20.956;2023-01-01T06:21:22;13.81;68.26
65598;SHT31;52267;51.984;20.956;2023-01-01T06:23:51;13.81;68.11
65598;SHT31;52267;51.984;20.956;2023-01-01T06:26:30;13.84;68.22
65598;SHT31;52267;51.984;20.956;2023-01-01T06:28:59;13.88;68.36
65598;SHT31;52267;51.984;20.956;2023-01-01T06:31:28;13.91;67.70
65598;SHT31;52267;51.984;20.956;2023-01-01T06:33:56;13.98;67.46
65598;SHT31;52267;51.984;20.956;2023-01-01T06:36:24;13.99;67.57
65598;SHT31;52267;51.984;20.956;2023-01-01T06:38:53;14.02;67.73
65598;SHT31;52267;51.984;20.956;2023-01-01T06:41:22;14.03;67.22
65598;SHT31;52267;51.984;20.956;2023-01-01T06:43:51;14.07;66.83
65598;SHT31;52267;51.984;20.956;2023-01-01T06:46:21;14.09;66.66
65598;SHT31;52267;51.984;20.956;2023-01-01T06:48:54;14.12;66.81
65598;SHT31;52267;51.984;20.956;2023-01-01T06:51:26;14.14;66.72
65598;SHT31;52267;51.984;20.956;2023-01-01T06:53:59;14.13;66.63
65598;SHT31;52267;51.984;20.956;2023-01-01T06:56:28;14.08;66.83
65598;SHT31;52267;51.984;20.956;2023-01-01T06:58:56;14.07;66.76
65598;SHT31;52267;51.984;20.956;2023-01-01T07:01:25;14.08;66.62
65598;SHT31;52267;51.984;20.956;2023-01-01T07:03:58;14.08;66.52
65598;SHT31;52267;51.984;20.956;2023-01-01T07:06:28;14.14;66.16
65598;SHT31;52267;51.984;20.956;2023-01-01T07:08:57;14.17;66.41
65598;SHT31;52267;51.984;20.956;2023-01-01T07:11:25;14.16;66.29
65598;SHT31;52267;51.984;20.956;2023-01-01T07:13:53;14.20;66.06
65598;SHT31;52267;51.984;20.956;2023-01-01T07:16:20;14.21;65.78
65598;SHT31;52267;51.984;20.956;2023-01-01T07:18:48;14.24;65.78
65598;SHT31;52267;51.984;20.956;2023-01-01T07:21:26;14.26;65.62
65598;SHT31;52267;51.984;20.956;2023-01-01T07:24:17;14.27;65.51
65598;SHT31;52267;51.984;20.956;2023-01-01T07:26:45;14.29;65.70
65598;SHT31;52267;51.984;20.956;2023-01-01T07:29:12;14.32;65.21
65598;SHT31;52267;51.984;20.956;2023-01-01T07:31:40;14.37;64.95
65598;SHT31;52267;51.984;20.956;2023-01-01T07:34:13;14.41;64.84
65598;SHT31;52267;51.984;20.956;2023-01-01T07:36:44;14.48;64.29
65598;SHT31;52267;51.984;20.956;2023-01-01T07:39:11;14.60;64.10
65598;SHT31;52267;51.984;20.956;2023-01-01T07:41:38;14.67;63.77
65598;SHT31;52267;51.984;20.956;2023-01-01T07:44:05;14.77;63.06
65598;SHT31;52267;51.984;20.956;2023-01-01T07:46:33;14.88;62.70
65598;SHT31;52267;51.984;20.956;2023-01-01T07:49:01;14.91;62.81
65598;SHT31;52267;51.984;20.956;2023-01-01T07:51:29;14.90;63.06
65598;SHT31;52267;51.984;20.956;2023-01-01T07:53:56;14.90;62.94
65598;SHT31;52267;51.984;20.956;2023-01-01T07:56:23;14.93;62.59
65598;SHT31;52267;51.984;20.956;2023-01-01T07:58:50;15.00;61.97
65598;SHT31;52267;51.984;20.956;2023-01-01T08:01:17;15.12;61.99
65598;SHT31;52267;51.984;20.956;2023-01-01T08:03:49;15.18;61.56
65598;SHT31;52267;51.984;20.956;2023-01-01T08:06:17;15.22;60.90
65598;SHT31;52267;51.984;20.956;2023-01-01T08:08:45;15.23;61.67
65598;SHT31;52267;51.984;20.956;2023-01-01T08:11:12;15.30;60.97
65598;SHT31;52267;51.984;20.956;2023-01-01T08:13:39;15.32;60.90
65598;SHT31;52267;51.984;20.956;2023-01-01T08:16:08;15.37;60.55
65598;SHT31;52267;51.984;20.956;2023-01-01T08:18:36;15.43;60.66
65598;SHT31;52267;51.984;20.956;2023-01-01T08:21:03;15.46;60.55
65598;SHT31;52267;51.984;20.956;2023-01-01T08:23:30;15.53;59.67
65598;SHT31;52267;51.984;20.956;2023-01-01T08:26:01;15.58;60.11
65598;SHT31;52267;51.984;20.956;2023-01-01T08:28:28;15.61;60.16
65598;SHT31;52267;51.984;20.956;2023-01-01T08:30:56;15.68;59.64
65598;SHT31;52267;51.984;20.956;2023-01-01T08:33:24;15.73;59.60
65598;SHT31;52267;51.984;20.956;2023-01-01T08:35:51;15.81;59.43
65598;SHT31;52267;51.984;20.956;2023-01-01T08:38:19;15.84;59.32
65598;SHT31;52267;51.984;20.956;2023-01-01T08:40:46;15.87;59.68
65598;SHT31;52267;51.984;20.956;2023-01-01T08:43:13;15.92;59.22
65598;SHT31;52267;51.984;20.956;2023-01-01T08:45:40;16.02;59.19
65598;SHT31;52267;51.984;20.956;2023-01-01T08:48:07;16.12;58.19
65598;SHT31;52267;51.984;20.956;2023-01-01T08:50:34;16.27;57.50
65598;SHT31;52267;51.984;20.956;2023-01-01T08:53:01;16.34;57.97
65598;SHT31;52267;51.984;20.956;2023-01-01T08:55:29;16.44;57.38
65598;SHT31;52267;51.984;20.956;2023-01-01T08:57:56;16.56;57.04
65598;SHT31;52267;51.984;20.956;2023-01-01T09:00:23;16.61;57.37
65598;SHT31;52267;51.984;20.956;2023-01-01T09:02:50;16.65;57.04
65598;SHT31;52267;51.984;20.956;2023-01-01T09:05:18;16.76;55.59
65598;SHT31;52267;51.984;20.956;2023-01-01T09:07:45;16.87;55.83
65598;SHT31;52267;51.984;20.956;2023-01-01T09:10:12;16.95;55.21
65598;SHT31;52267;51.984;20.956;2023-01-01T09:12:39;17.02;55.09
65598;SHT31;52267;51.984;20.956;2023-01-01T09:15:08;17.12;54.67
65598;SHT31;52267;51.984;20.956;2023-01-01T09:17:42;17.28;54.34
65598;SHT31;52267;51.984;20.956;2023-01-01T09:20:09;17.41;54.01
65598;SHT31;52267;51.984;20.956;2023-01-01T09:22:36;17.53;53.78
65598;SHT31;52267;51.984;20.956;2023-01-01T09:25:03;17.80;52.99
65598;SHT31;52267;51.984;20.956;2023-01-01T09:27:31;18.02;52.74
65598;SHT31;52267;51.984;20.956;2023-01-01T09:29:58;18.24;52.61
65598;SHT31;52267;51.984;20.956;2023-01-01T09:32:25;18.45;52.12
65598;SHT31;52267;51.984;20.956;2023-01-01T09:34:52;18.58;52.23
65598;SHT31;52267;51.984;20.956;2023-01-01T09:37:20;18.73;50.85
65598;SHT31;52267;51.984;20.956;2023-01-01T09:39:47;18.80;50.29
65598;SHT31;52267;51.984;20.956;2023-01-01T09:44:59;18.90;50.15
65598;SHT31;52267;51.984;20.956;2023-01-01T09:48:03;18.93;50.06
65598;SHT31;52267;51.984;20.956;2023-01-01T09:53:15;18.71;50.44
65598;SHT31;52267;51.984;20.956;2023-01-01T09:55:58;18.66;49.88
65598;SHT31;52267;51.984;20.956;2023-01-01T09:58:28;18.60;50.33
65598;SHT31;52267;51.984;20.956;2023-01-01T10:04:40;18.60;49.34
65598;SHT31;52267;51.984;20.956;2023-01-01T10:07:19;18.67;49.42
65598;SHT31;52267;51.984;20.956;2023-01-01T10:09:58;18.70;50.08
65598;SHT31;52267;51.984;20.956;2023-01-01T10:15:39;18.58;50.31
65598;SHT31;52267;51.984;20.956;2023-01-01T10:18:16;18.54;50.61
65598;SHT31;52267;51.984;20.956;2023-01-01T10:20:58;18.50;50.25
65598;SHT31;52267;51.984;20.956;2023-01-01T10:23:30;18.51;50.27
65598;SHT31;52267;51.984;20.956;2023-01-01T10:26:16;18.57;49.70
65598;SHT31;52267;51.984;20.956;2023-01-01T10:28:55;18.73;49.59
65598;SHT31;52267;51.984;20.956;2023-01-01T10:31:34;18.92;49.24
65598;SHT31;52267;51.984;20.956;2023-01-01T10:34:12;19.06;48.64
65598;SHT31;52267;51.984;20.956;2023-01-01T10:36:45;19.11;48.58
65598;SHT31;52267;51.984;20.956;2023-01-01T10:39:15;19.14;48.46
65598;SHT31;52267;51.984;20.956;2023-01-01T10:41:44;19.17;48.71
65598;SHT31;52267;51.984;20.956;2023-01-01T10:44:12;19.18;48.78
65598;SHT31;52267;51.984;20.956;2023-01-01T10:46:46;19.11;48.83
65598;SHT31;52267;51.984;20.956;2023-01-01T10:49:19;19.02;48.74
65598;SHT31;52267;51.984;20.956;2023-01-01T10:51:50;18.94;49.32
65598;SHT31;52267;51.984;20.956;2023-01-01T10:54:33;19.01;49.18
65598;SHT31;52267;51.984;20.956;2023-01-01T11:08:31;19.00;49.55
65598;SHT31;52267;51.984;20.956;2023-01-01T11:11:02;18.93;49.54
65598;SHT31;52267;51.984;20.956;2023-01-01T11:13:29;18.88;49.57
65598;SHT31;52267;51.984;20.956;2023-01-01T11:15:58;18.82;49.63
65598;SHT31;52267;51.984;20.956;2023-01-01T11:18:30;18.73;49.86
65598;SHT31;52267;51.984;20.956;2023-01-01T11:21:02;18.65;49.91
65598;SHT31;52267;51.984;20.956;2023-01-01T11:23:35;18.65;50.39
65598;SHT31;52267;51.984;20.956;2023-01-01T11:26:25;18.66;50.45
65598;SHT31;52267;51.984;20.956;2023-01-01T11:28:59;18.67;50.49
65598;SHT31;52267;51.984;20.956;2023-01-01T11:31:43;18.64;50.91
65598;SHT31;52267;51.984;20.956;2023-01-01T11:34:26;18.64;51.03
65598;SHT31;52267;51.984;20.956;2023-01-01T11:39:53;18.71;50.67
65598;SHT31;52267;51.984;20.956;2023-01-01T11:42:24;18.75;50.92
65598;SHT31;52267;51.984;20.956;2023-01-01T11:44:55;18.75;50.93
65598;SHT31;52267;51.984;20.956;2023-01-01T11:50:05;18.68;50.58
65598;SHT31;52267;51.984;20.956;2023-01-01T11:52:57;18.65;50.68
65598;SHT31;52267;51.984;20.956;2023-01-01T11:55:44;18.55;50.89
65598;SHT31;52267;51.984;20.956;2023-01-01T12:04:30;18.12;51.26
65598;SHT31;52267;51.984;20.956;2023-01-01T12:07:17;18.08;51.47
65598;SHT31;52267;51.984;20.956;2023-01-01T12:15:48;18.08;51.18
65598;SHT31;52267;51.984;20.956;2023-01-01T12:18:26;17.95;51.85
65598;SHT31;52267;51.984;20.956;2023-01-01T12:21:04;17.79;51.74
65598;SHT31;52267;51.984;20.956;2023-01-01T12:23:54;17.67;52.12
65598;SHT31;52267;51.984;20.956;2023-01-01T12:26:39;17.60;52.21
65598;SHT31;52267;51.984;20.956;2023-01-01T12:53:14;17.28;53.15
65598;SHT31;52267;51.984;20.956;2023-01-01T12:56:05;17.26;53.02
65598;SHT31;52267;51.984;20.956;2023-01-01T12:59:21;17.26;52.97
65598;SHT31;52267;51.984;20.956;2023-01-01T13:02:01;17.25;53.29
65598;SHT31;52267;51.984;20.956;2023-01-01T13:04:39;17.26;53.36
65598;SHT31;52267;51.984;20.956;2023-01-01T13:07:09;17.29;53.19
65598;SHT31;52267;51.984;20.956;2023-01-01T13:09:42;17.32;53.15
65598;SHT31;52267;51.984;20.956;2023-01-01T13:12:14;17.30;53.36
65598;SHT31;52267;51.984;20.956;2023-01-01T13:14:45;17.30;53.22
65598;SHT31;52267;51.984;20.956;2023-01-01T13:17:24;17.28;53.40
65598;SHT31;52267;51.984;20.956;2023-01-01T13:19:58;17.28;53.40
65598;SHT31;52267;51.984;20.956;2023-01-01T13:22:42;17.27;53.47
65598;SHT31;52267;51.984;20.956;2023-01-01T13:38:44;17.08;54.22
65598;SHT31;52267;51.984;20.956;2023-01-01T13:44:15;16.99;54.39
65598;SHT31;52267;51.984;20.956;2023-01-01T13:50:02;16.86;54.81
65598;SHT31;52267;51.984;20.956;2023-01-01T14:02:32;16.60;55.47
65598;SHT31;52267;51.984;20.956;2023-01-01T14:05:21;16.55;55.58
65598;SHT31;52267;51.984;20.956;2023-01-01T14:07:55;16.48;55.73
65598;SHT31;52267;51.984;20.956;2023-01-01T14:10:31;16.43;55.98
65598;SHT31;52267;51.984;20.956;2023-01-01T14:15:32;16.35;56.00
65598;SHT31;52267;51.984;20.956;2023-01-01T14:18:08;16.30;56.19
65598;SHT31;52267;51.984;20.956;2023-01-01T14:20:47;16.24;56.32
65598;SHT31;52267;51.984;20.956;2023-01-01T14:23:37;16.17;56.61
65598;SHT31;52267;51.984;20.956;2023-01-01T14:26:12;16.12;56.69
65598;SHT31;52267;51.984;20.956;2023-01-01T14:28:54;16.05;56.92
65598;SHT31;52267;51.984;20.956;2023-01-01T14:31:28;15.99;57.01
65598;SHT31;52267;51.984;20.956;2023-01-01T14:33:57;15.93;57.22
65598;SHT31;52267;51.984;20.956;2023-01-01T14:36:26;15.89;57.33
65598;SHT31;52267;51.984;20.956;2023-01-01T14:38:57;15.84;57.56
65598;SHT31;52267;51.984;20.956;2023-01-01T14:41:31;15.75;57.77
65598;SHT31;52267;51.984;20.956;2023-01-01T14:44:02;15.69;57.92
65598;SHT31;52267;51.984;20.956;2023-01-01T14:46:43;15.63;58.17
65598;SHT31;52267;51.984;20.956;2023-01-01T14:49:15;15.55;58.36
65598;SHT31;52267;51.984;20.956;2023-01-01T14:51:52;15.50;58.55
65598;SHT31;52267;51.984;20.956;2023-01-01T14:54:31;15.44;58.68
65598;SHT31;52267;51.984;20.956;2023-01-01T14:57:03;15.40;58.82
65598;SHT31;52267;51.984;20.956;2023-01-01T14:59:44;15.35;58.95
65598;SHT31;52267;51.984;20.956;2023-01-01T15:02:15;15.31;59.11
65598;SHT31;52267;51.984;20.956;2023-01-01T15:04:47;15.28;59.28
65598;SHT31;52267;51.984;20.956;2023-01-01T15:07:18;15.23;59.42
65598;SHT31;52267;51.984;20.956;2023-01-01T15:09:55;15.20;59.52
65598;SHT31;52267;51.984;20.956;2023-01-01T15:12:29;15.15;59.69
65598;SHT31;52267;51.984;20.956;2023-01-01T15:14:59;15.12;59.75
65598;SHT31;52267;51.984;20.956;2023-01-01T15:17:27;15.08;59.87
65598;SHT31;52267;51.984;20.956;2023-01-01T15:20:02;15.03;60.04
65598;SHT31;52267;51.984;20.956;2023-01-01T15:22:33;14.96;60.41
65598;SHT31;52267;51.984;20.956;2023-01-01T15:25:10;14.90;60.52
65598;SHT31;52267;51.984;20.956;2023-01-01T15:27:40;14.85;60.73
65598;SHT31;52267;51.984;20.956;2023-01-01T15:30:31;14.82;60.72
65598;SHT31;52267;51.984;20.956;2023-01-01T15:33:05;14.74;61.11
65598;SHT31;52267;51.984;20.956;2023-01-01T15:35:35;14.68;61.13
65598;SHT31;52267;51.984;20.956;2023-01-01T15:38:10;14.64;61.28
65598;SHT31;52267;51.984;20.956;2023-01-01T15:40:52;14.60;61.39
65598;SHT31;52267;51.984;20.956;2023-01-01T15:43:21;14.56;61.56
65598;SHT31;52267;51.984;20.956;2023-01-01T15:45:52;14.51;61.67
65598;SHT31;52267;51.984;20.956;2023-01-01T15:48:31;14.47;61.93
65598;SHT31;52267;51.984;20.956;2023-01-01T15:51:13;14.46;62.13
65598;SHT31;52267;51.984;20.956;2023-01-01T15:56:21;14.44;62.32
65598;SHT31;52267;51.984;20.956;2023-01-01T15:59:04;14.43;62.23
65598;SHT31;52267;51.984;20.956;2023-01-01T16:02:02;14.43;62.27
65598;SHT31;52267;51.984;20.956;2023-01-01T16:04:54;14.43;62.38
65598;SHT31;52267;51.984;20.956;2023-01-01T16:07:22;14.43;62.41
65598;SHT31;52267;51.984;20.956;2023-01-01T16:09:51;14.43;62.45
65598;SHT31;52267;51.984;20.956;2023-01-01T16:12:20;14.42;62.57
65598;SHT31;52267;51.984;20.956;2023-01-01T16:14:47;14.41;62.63
65598;SHT31;52267;51.984;20.956;2023-01-01T16:17:15;14.38;62.66
65598;SHT31;52267;51.984;20.956;2023-01-01T16:19:45;14.36;62.81
65598;SHT31;52267;51.984;20.956;2023-01-01T16:22:14;14.33;62.84
65598;SHT31;52267;51.984;20.956;2023-01-01T16:24:43;14.31;62.97
65598;SHT31;52267;51.984;20.956;2023-01-01T16:27:10;14.27;63.18
65598;SHT31;52267;51.984;20.956;2023-01-01T16:29:38;14.23;63.19
65598;SHT31;52267;51.984;20.956;2023-01-01T16:32:05;14.20;63.40
65598;SHT31;52267;51.984;20.956;2023-01-01T16:34:38;14.18;63.44
65598;SHT31;52267;51.984;20.956;2023-01-01T16:37:06;14.17;63.46
65598;SHT31;52267;51.984;20.956;2023-01-01T16:39:33;14.17;63.72
65598;SHT31;52267;51.984;20.956;2023-01-01T16:42:00;14.19;63.65
65598;SHT31;52267;51.984;20.956;2023-01-01T16:44:27;14.18;63.72
65598;SHT31;52267;51.984;20.956;2023-01-01T16:46:54;14.16;63.79
65598;SHT31;52267;51.984;20.956;2023-01-01T16:49:21;14.15;63.81
65598;SHT31;52267;51.984;20.956;2023-01-01T16:51:48;14.15;63.89
65598;SHT31;52267;51.984;20.956;2023-01-01T16:54:16;14.14;63.95
65598;SHT31;52267;51.984;20.956;2023-01-01T16:56:43;14.12;63.99
65598;SHT31;52267;51.984;20.956;2023-01-01T16:59:10;14.10;64.02
65598;SHT31;52267;51.984;20.956;2023-01-01T17:01:37;14.11;64.07
65598;SHT31;52267;51.984;20.956;2023-01-01T17:04:04;14.10;64.09
65598;SHT31;52267;51.984;20.956;2023-01-01T17:06:32;14.14;64.02
65598;SHT31;52267;51.984;20.956;2023-01-01T17:08:59;14.12;64.10
65598;SHT31;52267;51.984;20.956;2023-01-01T17:11:26;14.09;64.21
65598;SHT31;52267;51.984;20.956;2023-01-01T17:13:54;14.07;64.23
65598;SHT31;52267;51.984;20.956;2023-01-01T17:16:21;14.06;64.30
65598;SHT31;52267;51.984;20.956;2023-01-01T17:18:49;14.07;64.26
65598;SHT31;52267;51.984;20.956;2023-01-01T17:21:17;14.09;64.21
65598;SHT31;52267;51.984;20.956;2023-01-01T17:23:45;14.08;64.26
65598;SHT31;52267;51.984;20.956;2023-01-01T17:26:15;14.05;64.30
65598;SHT31;52267;51.984;20.956;2023-01-01T17:28:46;14.03;64.37
65598;SHT31;52267;51.984;20.956;2023-01-01T17:31:15;13.99;64.48
65598;SHT31;52267;51.984;20.956;2023-01-01T17:33:49;13.95;64.55
65598;SHT31;52267;51.984;20.956;2023-01-01T17:36:17;13.89;64.68
65598;SHT31;52267;51.984;20.956;2023-01-01T17:38:44;13.86;64.76
65598;SHT31;52267;51.984;20.956;2023-01-01T17:41:12;13.82;64.89
65598;SHT31;52267;51.984;20.956;2023-01-01T17:43:43;13.77;65.01
65598;SHT31;52267;51.984;20.956;2023-01-01T17:48:45;13.68;65.27
65598;SHT31;52267;51.984;20.956;2023-01-01T17:51:14;13.63;65.29
65598;SHT31;52267;51.984;20.956;2023-01-01T17:53:42;13.58;65.48
65598;SHT31;52267;51.984;20.956;2023-01-01T17:56:13;13.56;65.58
65598;SHT31;52267;51.984;20.956;2023-01-01T17:58:43;13.54;65.74
65598;SHT31;52267;51.984;20.956;2023-01-01T18:01:25;13.50;65.77
65598;SHT31;52267;51.984;20.956;2023-01-01T18:04:00;13.46;65.85
65598;SHT31;52267;51.984;20.956;2023-01-01T18:06:31;13.42;65.84
65598;SHT31;52267;51.984;20.956;2023-01-01T18:09:00;13.39;66.02